Time;durP1;ratioP1;P1;durP2;ratioP2;P2;SDS_P1;SDS_P2;PMS_P1;PMS_P2;Temp;Humidity;BMP_temperature;BMP_pressure;BME280_temperature;BME280_humidity;BME280_pressure;Samples;Min_cycle;Max_cycle;Signal;HPM_P1;HPM_P2
2022/05/11 00:01:47;;;;;;;;;;;;;;;22.11;60.20;97285.73;610472;232;66937;-70
2022/05/11 00:04:15;;;;;;;;;;;;;;;22.11;60.06;97279.58;610429;232;62982;-70
2022/05/11 00:06:43;;;;;;;;;;;;;;;22.11;59.94;97292.96;610429;232;65135;-70
2022/05/11 00:09:12;;;;;;;;;;;;;;;22.11;60.11;97284.94;610405;232;64876;-70
2022/05/11 00:11:40;;;;;;;;;;;;;;;22.11;60.03;97287.61;610436;232;65599;-70
2022/05/11 00:14:08;;;;;;;;;;;;;;;22.12;60.54;97289.20;610425;232;67091;-70
2022/05/11 00:16:36;;;;;;;;;;;;;;;22.10;60.42;97286.81;610438;232;66833;-70
2022/05/11 00:19:03;;;;;;;;;;;;;;;22.10;59.24;97289.48;610434;232;65110;-70
2022/05/11 00:21:31;;;;;;;;;;;;;;;22.10;60.37;97281.46;610389;232;65607;-70
2022/05/11 00:23:58;;;;;;;;;;;;;;;22.11;60.20;97282.25;610433;232;64800;-68
2022/05/11 00:26:26;;;;;;;;;;;;;;;22.10;60.21;97283.34;610480;232;62978;-68
2022/05/11 00:28:54;;;;;;;;;;;;;;;22.09;60.30;97287.87;610400;232;67479;-70
2022/05/11 00:31:22;;;;;;;;;;;;;;;22.09;58.62;97287.07;610451;232;66665;-70
2022/05/11 00:33:49;;;;;;;;;;;;;;;22.09;59.08;97287.07;610443;232;65337;-70
2022/05/11 00:36:17;;;;;;;;;;;;;;;22.09;58.98;97285.19;610421;232;65069;-70
2022/05/11 00:38:45;;;;;;;;;;;;;;;22.09;59.54;97279.84;610436;232;67237;-70
2022/05/11 00:41:13;;;;;;;;;;;;;;;22.09;59.91;97281.72;610424;232;65397;-70
2022/05/11 00:43:42;;;;;;;;;;;;;;;22.09;59.12;97276.37;610426;232;67043;-70
2022/05/11 00:46:11;;;;;;;;;;;;;;;22.08;59.94;97275.56;610459;232;67038;-70
2022/05/11 00:51:28;;;;;;;;;;;;;;;22.09;60.17;97271.02;610450;232;64946;-68
2022/05/11 00:53:55;;;;;;;;;;;;;;;22.07;59.87;97265.95;610487;232;66936;-68
2022/05/11 00:56:24;;;;;;;;;;;;;;;22.08;59.58;97264.86;610439;232;65157;-68
2022/05/11 00:58:53;;;;;;;;;;;;;;;22.08;60.90;97266.74;610398;232;66811;-68
2022/05/11 01:01:20;;;;;;;;;;;;;;;22.07;59.93;97265.13;610056;232;66839;-68
2022/05/11 01:03:52;;;;;;;;;;;;;;;22.07;59.71;97262.45;610416;232;65406;-68
2022/05/11 01:06:22;;;;;;;;;;;;;;;22.07;59.48;97263.27;609888;232;67281;-68
2022/05/11 01:08:50;;;;;;;;;;;;;;;22.08;57.80;97254.16;610503;232;67017;-68
2022/05/11 01:11:17;;;;;;;;;;;;;;;22.09;60.01;97249.59;610461;232;65353;-68
2022/05/11 01:13:45;;;;;;;;;;;;;;;22.07;59.52;97238.36;610440;232;67204;-68
2022/05/11 01:16:13;;;;;;;;;;;;;;;22.07;59.52;97247.21;610429;232;67043;-68
2022/05/11 01:18:41;;;;;;;;;;;;;;;22.07;59.89;97251.73;610456;232;65336;-68
2022/05/11 01:21:08;;;;;;;;;;;;;;;22.06;59.54;97258.17;610551;232;67163;-68
2022/05/11 01:23:37;;;;;;;;;;;;;;;22.06;59.83;97261.65;610438;232;66949;-68
2022/05/11 01:26:05;;;;;;;;;;;;;;;22.06;59.32;97258.17;610458;232;65450;-68
2022/05/11 01:28:33;;;;;;;;;;;;;;;22.05;60.18;97254.70;610420;232;67091;-68
2022/05/11 01:31:05;;;;;;;;;;;;;;;22.05;60.96;97259.27;610437;232;67008;-68
2022/05/11 01:33:33;;;;;;;;;;;;;;;22.06;59.35;97250.15;610504;232;63022;-68
2022/05/11 01:36:05;;;;;;;;;;;;;;;22.05;60.12;97249.35;610463;232;64843;-68
2022/05/11 01:38:37;;;;;;;;;;;;;;;22.06;59.86;97250.15;610429;232;67009;-71
2022/05/11 01:41:05;;;;;;;;;;;;;;;22.06;60.78;97261.65;610460;232;65103;-71
2022/05/11 01:43:33;;;;;;;;;;;;;;;22.06;60.32;97256.30;610442;232;66789;-70
2022/05/11 01:46:01;;;;;;;;;;;;;;;22.06;58.83;97255.50;610498;232;64163;-70
2022/05/11 01:48:29;;;;;;;;;;;;;;;22.06;60.17;97258.17;610522;232;63215;-70
2022/05/11 01:50:57;;;;;;;;;;;;;;;22.04;59.28;97254.96;610470;232;64331;-71
2022/05/11 01:53:25;;;;;;;;;;;;;;;22.03;58.37;97262.20;610461;232;64905;-71
2022/05/11 01:55:52;;;;;;;;;;;;;;;22.04;61.11;97247.73;610414;232;65126;-71
2022/05/11 01:58:20;;;;;;;;;;;;;;;22.04;59.39;97257.64;607989;232;64458;-70
2022/05/11 02:00:50;;;;;;;;;;;;;;;22.04;58.44;97252.28;606222;233;45288;-71
2022/05/11 02:03:18;;;;;;;;;;;;;;;22.05;59.69;97259.27;606253;234;65320;-70
2022/05/11 02:08:32;;;;;;;;;;;;;;;22.04;58.21;97269.14;606150;234;66971;-71
2022/05/11 02:11:00;;;;;;;;;;;;;;;22.05;59.37;97268.09;606257;234;65345;-71
2022/05/11 02:13:28;;;;;;;;;;;;;;;22.03;59.73;97267.55;606251;234;66837;-71
2022/05/11 02:15:56;;;;;;;;;;;;;;;22.03;59.55;97267.55;606215;234;66726;-71
2022/05/11 02:18:24;;;;;;;;;;;;;;;22.04;60.21;97265.67;606179;234;62998;-71
2022/05/11 02:20:52;;;;;;;;;;;;;;;22.03;60.32;97259.52;606214;234;67393;-71
2022/05/11 02:23:20;;;;;;;;;;;;;;;22.02;59.66;97263.28;606229;234;66655;-71
2022/05/11 02:25:49;;;;;;;;;;;;;;;22.02;59.73;97260.60;606287;234;65359;-71
2022/05/11 02:28:18;;;;;;;;;;;;;;;22.03;61.29;97258.72;606206;234;65851;-71
2022/05/11 02:30:46;;;;;;;;;;;;;;;22.02;59.28;97259.81;606209;234;64846;-71
2022/05/11 02:33:14;;;;;;;;;;;;;;;22.02;60.54;97255.25;606210;234;65370;-71
2022/05/11 02:35:45;;;;;;;;;;;;;;;22.02;60.03;97254.45;606264;234;67230;-69
2022/05/11 02:38:16;;;;;;;;;;;;;;;22.03;60.54;97245.34;606287;234;64792;-71
2022/05/11 02:40:44;;;;;;;;;;;;;;;22.02;60.49;97249.10;606252;234;65141;-71
2022/05/11 02:43:11;;;;;;;;;;;;;;;22.03;60.42;97256.05;606200;234;67148;-71
2022/05/11 02:45:40;;;;;;;;;;;;;;;22.01;60.53;97255.51;606226;234;66854;-71
2022/05/11 02:48:08;;;;;;;;;;;;;;;22.01;60.17;97260.86;606205;234;63865;-71
2022/05/11 02:50:41;;;;;;;;;;;;;;;22.01;61.19;97263.53;606222;234;67100;-71
2022/05/11 02:53:09;;;;;;;;;;;;;;;22.01;60.38;97258.98;606034;233;66919;-71
2022/05/11 02:55:38;;;;;;;;;;;;;;;22.00;58.93;97257.39;606222;234;62977;-71
2022/05/11 02:58:06;;;;;;;;;;;;;;;22.01;59.03;97263.53;606117;233;64866;-71
2022/05/11 03:00:35;;;;;;;;;;;;;;;22.00;58.33;97256.59;606222;234;64302;-71
2022/05/11 03:03:03;;;;;;;;;;;;;;;22.01;58.76;97260.86;606201;234;65377;-71
2022/05/11 03:05:31;;;;;;;;;;;;;;;22.02;59.45;97265.16;606249;234;64884;-71
2022/05/11 03:07:58;;;;;;;;;;;;;;;22.01;59.42;97268.89;606163;234;65352;-70
2022/05/11 03:10:26;;;;;;;;;;;;;;;22.01;58.81;97276.92;606167;234;66306;-70
2022/05/11 03:12:54;;;;;;;;;;;;;;;22.02;58.45;97273.19;606183;234;67072;-70
2022/05/11 03:15:21;;;;;;;;;;;;;;;22.01;59.68;97271.56;606218;234;66646;-70
2022/05/11 03:17:50;;;;;;;;;;;;;;;22.00;57.64;97273.45;606252;234;63033;-70
2022/05/11 03:20:23;;;;;;;;;;;;;;;22.01;60.03;97276.92;606213;234;64852;-70
2022/05/11 03:22:53;;;;;;;;;;;;;;;22.00;60.18;97276.12;606198;234;66878;-71
2022/05/11 03:25:21;;;;;;;;;;;;;;;21.99;59.14;97277.20;606229;234;65453;-71
2022/05/11 03:27:49;;;;;;;;;;;;;;;21.99;58.69;97277.20;606188;234;66789;-72
2022/05/11 03:30:17;;;;;;;;;;;;;;;21.99;58.61;97269.17;606202;234;65115;-71
2022/05/11 03:35:32;;;;;;;;;;;;;;;21.98;59.12;97269.44;606166;234;67361;-68
2022/05/11 03:37:59;;;;;;;;;;;;;;;21.99;59.19;97271.03;606201;234;66887;-68
2022/05/11 03:40:27;;;;;;;;;;;;;;;21.98;58.49;97278.27;606208;234;62991;-68
2022/05/11 03:42:56;;;;;;;;;;;;;;;21.99;58.63;97279.88;606131;233;64804;-68
2022/05/11 03:45:24;;;;;;;;;;;;;;;21.98;59.54;97274.79;606190;234;66737;-68
2022/05/11 03:47:52;;;;;;;;;;;;;;;21.98;59.25;97280.14;606199;234;63039;-68
2022/05/11 03:50:22;;;;;;;;;;;;;;;21.98;59.27;97285.49;606218;234;64783;-68
2022/05/11 03:52:50;;;;;;;;;;;;;;;21.98;59.03;97288.17;606200;234;67130;-68
2022/05/11 03:55:18;;;;;;;;;;;;;;;21.97;59.40;97284.70;606202;234;65382;-68
2022/05/11 03:57:45;;;;;;;;;;;;;;;21.96;59.25;97293.77;606085;233;67081;-69
2022/05/11 04:00:14;;;;;;;;;;;;;;;21.97;59.55;97294.60;606225;234;66826;-70
2022/05/11 04:02:43;;;;;;;;;;;;;;;21.97;58.67;97294.60;606166;234;63285;-69
2022/05/11 04:05:11;;;;;;;;;;;;;;;21.98;58.02;97301.55;606198;234;67051;-70
2022/05/11 04:07:39;;;;;;;;;;;;;;;21.97;59.25;97299.95;606182;234;67014;-70
2022/05/11 04:10:07;;;;;;;;;;;;;;;21.97;58.67;97311.45;606173;234;65337;-69
2022/05/11 04:12:34;;;;;;;;;;;;;;;21.96;59.19;97309.83;606245;234;67240;-71
2022/05/11 04:15:03;;;;;;;;;;;;;;;21.96;60.31;97304.48;606152;234;66694;-70
2022/05/11 04:17:30;;;;;;;;;;;;;;;21.95;59.37;97306.36;606205;234;65384;-69
2022/05/11 04:19:58;;;;;;;;;;;;;;;21.97;61.00;97307.98;606198;234;64906;-69
2022/05/11 04:22:26;;;;;;;;;;;;;;;21.96;60.02;97307.16;606176;234;67639;-69
2022/05/11 04:24:53;;;;;;;;;;;;;;;21.95;60.58;97303.69;606205;234;65356;-69
2022/05/11 04:27:21;;;;;;;;;;;;;;;21.94;60.08;97304.77;606263;234;66951;-69
2022/05/11 04:29:48;;;;;;;;;;;;;;;21.94;59.64;97306.65;606226;234;67046;-69
2022/05/11 04:32:16;;;;;;;;;;;;;;;21.92;59.14;97309.58;606205;234;65160;-70
2022/05/11 04:34:43;;;;;;;;;;;;;;;21.94;60.18;97314.67;606222;234;67044;-69
2022/05/11 04:37:16;;;;;;;;;;;;;;;21.93;58.90;97316.55;606207;234;66804;-70
2022/05/11 04:39:40;;;;;;;;;;;;;;;21.95;59.26;97318.95;606154;233;65198;-70
2022/05/11 04:42:08;;;;;;;;;;;;;;;21.94;59.90;97326.17;606168;234;66662;-70
2022/05/11 04:44:36;;;;;;;;;;;;;;;21.94;58.83;97325.37;606223;234;67001;-70
2022/05/11 04:47:11;;;;;;;;;;;;;;;21.93;59.62;97326.43;606192;234;66339;-69
2022/05/11 04:49:39;;;;;;;;;;;;;;;21.94;58.99;97328.84;606017;234;65115;-69
2022/05/11 04:52:08;;;;;;;;;;;;;;;21.94;60.08;97333.41;606277;234;67003;-69
2022/05/11 04:54:37;;;;;;;;;;;;;;;21.94;60.46;97331.53;606183;234;65585;-69
2022/05/11 04:57:05;;;;;;;;;;;;;;;21.93;59.27;97337.96;606359;232;67051;-70
2022/05/11 04:59:33;;;;;;;;;;;;;;;21.93;60.44;97331.78;610445;232;66947;-69
2022/05/11 05:02:01;;;;;;;;;;;;;;;21.93;60.18;97340.64;610438;232;65329;-70
2022/05/11 05:04:29;;;;;;;;;;;;;;;21.93;60.77;97348.66;610472;232;67231;-70
2022/05/11 05:06:57;;;;;;;;;;;;;;;21.91;59.55;97348.13;610462;232;66744;-70
2022/05/11 05:09:24;;;;;;;;;;;;;;;21.92;59.96;97351.59;610412;232;65275;-70
2022/05/11 05:11:52;;;;;;;;;;;;;;;21.92;60.27;97347.04;610434;232;67068;-70
2022/05/11 05:14:20;;;;;;;;;;;;;;;21.91;59.59;97348.13;610465;232;64791;-70
2022/05/11 05:16:48;;;;;;;;;;;;;;;21.90;59.09;97354.52;610367;232;62979;-69
2022/05/11 05:19:16;;;;;;;;;;;;;;;21.92;60.01;97357.74;610455;232;66967;-70
2022/05/11 05:21:44;;;;;;;;;;;;;;;21.90;58.99;97362.55;610428;232;66915;-70
2022/05/11 05:24:11;;;;;;;;;;;;;;;21.91;60.06;97366.05;610367;232;65129;-70
2022/05/11 05:26:38;;;;;;;;;;;;;;;21.91;59.83;97372.20;610462;232;66974;-72
2022/05/11 05:31:51;;;;;;;;;;;;;;;21.91;59.24;97371.41;610520;232;65517;-73
2022/05/11 05:34:19;;;;;;;;;;;;;;;21.91;60.34;97376.76;610449;232;67244;-71
2022/05/11 05:36:46;;;;;;;;;;;;;;;21.91;61.43;97374.88;610418;232;67219;-71
2022/05/11 05:39:14;;;;;;;;;;;;;;;21.91;61.79;97384.78;610439;232;65323;-71
2022/05/11 05:41:41;;;;;;;;;;;;;;;21.89;61.23;97379.69;610446;232;67050;-71
2022/05/11 05:44:09;;;;;;;;;;;;;;;21.90;60.75;97394.66;610452;232;66943;-72
2022/05/11 05:46:36;;;;;;;;;;;;;;;21.90;60.66;97396.54;610483;232;63014;-71
2022/05/11 05:49:04;;;;;;;;;;;;;;;21.90;61.23;97399.22;610417;232;67087;-71
2022/05/11 05:51:32;;;;;;;;;;;;;;;21.91;60.98;97395.48;610374;232;64457;-73
2022/05/11 05:53:59;;;;;;;;;;;;;;;21.89;60.29;97392.27;610448;232;62982;-71
2022/05/11 05:56:27;;;;;;;;;;;;;;;21.89;60.85;97392.27;610385;232;66665;-71
2022/05/11 05:59:01;;;;;;;;;;;;;;;21.88;60.78;97398.67;609999;232;66743;-72
2022/05/11 06:01:27;;;;;;;;;;;;;;;21.89;61.14;97402.97;610296;232;65388;-71
2022/05/11 06:03:54;;;;;;;;;;;;;;;21.89;61.18;97402.97;610374;232;64862;-70
2022/05/11 06:06:22;;;;;;;;;;;;;;;21.89;60.27;97409.13;614239;230;66715;-70
2022/05/11 06:08:49;;;;;;;;;;;;;;;21.89;61.44;97414.47;615253;230;65402;-70
2022/05/11 06:11:17;;;;;;;;;;;;;;;21.89;61.50;97411.80;615052;230;66633;-71
2022/05/11 06:13:49;;;;;;;;;;;;;;;21.89;61.48;97414.47;615174;230;66592;-73
2022/05/11 06:16:15;;;;;;;;;;;;;;;21.90;62.35;97415.27;614875;230;63208;-73
2022/05/11 06:18:43;;;;;;;;;;;;;;;21.89;61.78;97417.15;615236;230;64885;-74
2022/05/11 06:21:12;;;;;;;;;;;;;;;21.89;61.77;97422.50;615209;230;65020;-68
2022/05/11 06:23:40;;;;;;;;;;;;;;;21.89;61.05;97422.50;615211;230;65395;-76
2022/05/11 06:26:08;;;;;;;;;;;;;;;21.89;61.41;97422.50;615158;230;67846;-68
2022/05/11 06:28:38;;;;;;;;;;;;;;;21.90;62.16;97420.62;615119;230;64735;-68
2022/05/11 06:31:05;;;;;;;;;;;;;;;21.89;61.53;97425.17;615113;230;65656;-68
2022/05/11 06:33:33;;;;;;;;;;;;;;;21.89;61.17;97419.83;614577;230;66811;-69
2022/05/11 06:36:01;;;;;;;;;;;;;;;21.91;60.37;97419.57;615045;230;64781;-68
2022/05/11 06:38:28;;;;;;;;;;;;;;;21.89;60.37;97417.15;615205;230;62921;-68
2022/05/11 06:40:56;;;;;;;;;;;;;;;21.89;59.89;97422.50;615103;230;64917;-69
2022/05/11 06:43:24;;;;;;;;;;;;;;;21.90;61.42;97423.30;615087;230;64527;-68
2022/05/11 06:45:52;;;;;;;;;;;;;;;21.91;60.83;97419.57;615057;230;65596;-69
2022/05/11 06:48:20;;;;;;;;;;;;;;;21.90;59.94;97425.97;615145;230;67184;-70
2022/05/11 06:50:47;;;;;;;;;;;;;;;21.90;61.33;97425.97;614957;230;64972;-72
2022/05/11 06:53:16;;;;;;;;;;;;;;;21.91;61.56;97425.72;614251;230;65555;-68
2022/05/11 07:01:15;;;;;;;;;;;;;;;21.93;60.95;97420.91;617220;230;65438;-69
2022/05/11 07:03:43;;;;;;;;;;;;;;;21.94;60.33;97411.01;617136;230;64816;-68
2022/05/11 07:06:11;;;;;;;;;;;;;;;21.94;60.71;97414.48;617333;230;64724;-69
2022/05/11 07:08:40;;;;;;;;;;;;;;;21.95;62.33;97415.28;617393;230;65135;-70
2022/05/11 07:13:57;;;;;;;;;;;;;;;21.95;62.31;97413.40;617294;230;66783;-69
2022/05/11 07:16:27;;;;;;;;;;;;;;;21.95;62.05;97416.08;617285;230;62699;-76
2022/05/11 07:18:56;;;;;;;;;;;;;;;21.98;61.87;97411.27;617260;230;65150;-68
2022/05/11 07:21:24;;;;;;;;;;;;;;;21.98;62.09;97419.30;617355;230;64824;-68
2022/05/11 07:23:51;;;;;;;;;;;;;;;21.96;62.56;97406.17;617348;230;63387;-68
2022/05/11 07:26:19;;;;;;;;;;;;;;;21.97;62.82;97407.80;617297;230;65180;-68
2022/05/11 07:28:46;;;;;;;;;;;;;;;21.98;62.46;97414.73;617276;230;64888;-68
2022/05/11 07:31:14;;;;;;;;;;;;;;;21.97;62.54;97410.47;617325;230;65159;-68
2022/05/11 07:33:42;;;;;;;;;;;;;;;21.98;62.40;97408.59;617304;230;67231;-72
2022/05/11 07:36:09;;;;;;;;;;;;;;;22.00;63.54;97417.16;617334;230;66933;-71
2022/05/11 07:38:40;;;;;;;;;;;;;;;21.99;63.56;97410.19;617317;230;63036;-72
2022/05/11 07:41:06;;;;;;;;;;;;;;;21.99;62.09;97410.19;617226;230;64857;-75
2022/05/11 07:43:36;;;;;;;;;;;;;;;22.00;63.08;97409.13;617275;230;64921;-69
2022/05/11 07:46:03;;;;;;;;;;;;;;;21.98;64.55;97405.91;617253;230;63891;-69
2022/05/11 07:48:31;;;;;;;;;;;;;;;21.98;61.86;97408.59;617373;230;67048;-71
2022/05/11 07:50:58;;;;;;;;;;;;;;;22.00;63.32;97411.81;617303;230;67141;-68
2022/05/11 07:53:26;;;;;;;;;;;;;;;21.99;62.53;97411.02;617278;230;63021;-69
2022/05/11 08:01:24;;;;;;;;;;;;;;;22.00;63.54;97403.78;615187;230;65428;-69
2022/05/11 08:03:52;;;;;;;;;;;;;;;22.00;63.29;97406.45;615222;230;67097;-69
2022/05/11 08:06:19;;;;;;;;;;;;;;;22.01;63.84;97408.05;615171;230;67128;-69
2022/05/11 08:08:47;;;;;;;;;;;;;;;22.00;62.31;97401.11;615056;230;65217;-70
2022/05/11 08:11:14;;;;;;;;;;;;;;;22.00;62.28;97409.13;615156;230;67243;-68
2022/05/11 08:13:42;;;;;;;;;;;;;;;22.01;64.82;97402.70;615223;230;66919;-69
2022/05/11 08:16:09;;;;;;;;;;;;;;;21.99;62.49;97400.30;615067;230;65446;-68
2022/05/11 08:18:37;;;;;;;;;;;;;;;22.00;63.41;97393.87;615026;230;67033;-68
2022/05/11 08:21:04;;;;;;;;;;;;;;;22.00;63.39;97393.08;615190;230;66877;-69
2022/05/11 08:23:32;;;;;;;;;;;;;;;21.99;62.44;97386.09;615159;230;65111;-68
2022/05/11 08:26:00;;;;;;;;;;;;;;;22.00;63.85;97387.72;615207;230;66491;-69
2022/05/11 08:28:30;;;;;;;;;;;;;;;21.99;63.16;97391.45;615184;230;66832;-68
2022/05/11 08:33:44;;;;;;;;;;;;;;;21.99;62.49;97386.09;615171;230;67364;-69
2022/05/11 08:36:21;;;;;;;;;;;;;;;21.98;63.57;97382.62;615137;230;66857;-70
2022/05/11 08:38:50;;;;;;;;;;;;;;;21.97;63.14;97383.70;615150;230;65851;-69
2022/05/11 08:41:29;;;;;;;;;;;;;;;22.00;64.13;97380.49;615160;230;67263;-69
2022/05/11 08:43:59;;;;;;;;;;;;;;;22.00;64.10;97390.40;609961;230;67028;-69
2022/05/11 08:46:28;;;;;;;;;;;;;;;22.00;63.91;97380.49;614982;230;65102;-71
2022/05/11 08:49:06;;;;;;;;;;;;;;;22.01;64.14;97391.99;614242;230;67125;-68
2022/05/11 08:51:47;;;;;;;;;;;;;;;21.99;63.88;97383.42;613993;230;64926;-73
2022/05/11 08:54:16;;;;;;;;;;;;;;;21.97;64.21;97383.70;615010;230;65291;-67
2022/05/11 08:56:44;;;;;;;;;;;;;;;21.98;64.10;97384.50;615125;230;67322;-68
2022/05/11 08:59:14;;;;;;;;;;;;;;;21.98;64.35;97379.16;617066;230;67045;-69
2022/05/11 09:01:45;;;;;;;;;;;;;;;21.97;64.05;97380.23;617168;230;63260;-70
2022/05/11 09:04:14;;;;;;;;;;;;;;;21.97;63.29;97380.23;617085;230;64810;-70
2022/05/11 09:06:44;;;;;;;;;;;;;;;21.98;64.00;97374.59;617236;230;65645;-70
2022/05/11 09:09:11;;;;;;;;;;;;;;;21.98;63.72;97371.92;617268;230;62904;-69
2022/05/11 09:11:40;;;;;;;;;;;;;;;21.98;63.89;97369.25;617221;230;66095;-69
2022/05/11 09:14:08;;;;;;;;;;;;;;;21.99;64.23;97378.07;617327;230;66770;-68
2022/05/11 09:16:46;;;;;;;;;;;;;;;21.98;63.84;97371.13;615009;229;65329;-69
2022/05/11 09:19:17;;;;;;;;;;;;;;;21.98;63.53;97371.92;611964;229;67013;-70
2022/05/11 09:21:55;;;;;;;;;;;;;;;21.99;63.35;97367.36;612379;229;65078;-69
2022/05/11 09:24:29;;;;;;;;;;;;;;;22.00;63.36;97368.98;612893;229;43870;-68
2022/05/11 09:27:04;;;;;;;;;;;;;;;21.99;63.08;97372.72;614908;229;64901;-68
2022/05/11 09:29:33;;;;;;;;;;;;;;;21.99;62.55;97370.04;619346;229;66872;-69
2022/05/11 09:32:02;;;;;;;;;;;;;;;21.99;63.77;97362.02;618991;229;62963;-71
2022/05/11 09:34:36;;;;;;;;;;;;;;;21.98;64.23;97365.77;618002;229;67093;-71
2022/05/11 09:37:07;;;;;;;;;;;;;;;22.00;64.35;97358.28;618815;229;66854;-74
2022/05/11 09:39:35;;;;;;;;;;;;;;;21.99;64.17;97356.66;619197;229;65085;-70
2022/05/11 09:42:13;;;;;;;;;;;;;;;21.99;62.57;97353.98;619146;229;64493;-69
2022/05/11 09:44:43;;;;;;;;;;;;;;;22.00;64.67;97352.94;619009;229;64865;-70
2022/05/11 09:47:15;;;;;;;;;;;;;;;21.98;63.50;97349.72;619252;229;65229;-68
2022/05/11 09:49:42;;;;;;;;;;;;;;;21.99;63.16;97356.66;617890;229;67368;-70
2022/05/11 09:52:10;;;;;;;;;;;;;;;21.98;64.84;97355.06;619262;229;66781;-70
2022/05/11 09:54:42;;;;;;;;;;;;;;;22.00;65.17;97347.58;619196;229;65607;-70
2022/05/11 09:57:12;;;;;;;;;;;;;;;21.99;65.26;97348.63;619059;229;67105;-69
2022/05/11 09:59:45;;;;;;;;;;;;;;;21.99;63.56;97348.63;617847;229;66896;-69
2022/05/11 10:02:20;;;;;;;;;;;;;;;21.99;64.23;97345.95;617795;229;65377;-68
2022/05/11 10:04:50;;;;;;;;;;;;;;;21.99;63.75;97349.46;617873;229;66839;-70
2022/05/11 10:07:19;;;;;;;;;;;;;;;22.00;64.36;97351.05;617578;229;66631;-70
2022/05/11 10:09:55;;;;;;;;;;;;;;;21.99;64.86;97351.31;617823;229;65317;-69
2022/05/11 10:12:24;;;;;;;;;;;;;;;21.99;64.07;97352.14;617824;229;66743;-69
2022/05/11 10:23:27;;;;;;;;;;;;;;;21.98;64.98;97347.84;617780;229;67652;-70
2022/05/11 10:25:59;;;;;;;;;;;;;;;21.98;65.03;97347.04;617774;229;63211;-69
2022/05/11 10:28:31;;;;;;;;;;;;;;;21.99;65.07;97343.28;617408;229;66786;-71
2022/05/11 10:31:00;;;;;;;;;;;;;;;22.00;65.09;97350.26;617736;229;66638;-69
2022/05/11 10:33:47;;;;;;;;;;;;;;;22.00;65.54;97356.41;617846;229;62965;-68
2022/05/11 10:36:22;;;;;;;;;;;;;;;21.99;64.49;97349.46;617791;229;67219;-68
2022/05/11 10:38:57;;;;;;;;;;;;;;;21.99;64.40;97343.28;617737;229;67332;-70
2022/05/11 10:41:29;;;;;;;;;;;;;;;21.99;64.80;97340.61;617731;229;65303;-72
2022/05/11 10:44:04;;;;;;;;;;;;;;;22.00;65.01;97337.67;617758;229;67062;-73
2022/05/11 10:46:39;;;;;;;;;;;;;;;22.00;64.75;97335.00;617744;229;65016;-73
2022/05/11 10:49:08;;;;;;;;;;;;;;;21.99;65.58;97330.73;617824;229;65344;-68
2022/05/11 10:51:43;;;;;;;;;;;;;;;22.00;64.61;97321.62;617551;229;67146;-69
2022/05/11 10:54:15;;;;;;;;;;;;;;;22.00;63.68;97326.17;617770;229;66888;-68
2022/05/11 10:56:47;;;;;;;;;;;;;;;22.00;64.13;97321.62;617839;229;65576;-68
2022/05/11 10:59:17;;;;;;;;;;;;;;;22.01;65.41;97322.41;617631;229;66713;-69
2022/05/11 11:01:46;;;;;;;;;;;;;;;22.00;64.90;97321.62;617840;229;66841;-68
2022/05/11 11:04:18;;;;;;;;;;;;;;;22.02;65.25;97318.69;617339;229;65139;-68
2022/05/11 11:09:42;;;;;;;;;;;;;;;22.03;66.23;97320.28;617804;229;67101;-69
2022/05/11 11:12:28;;;;;;;;;;;;;;;22.02;65.45;97307.98;617520;229;65331;-69
2022/05/11 11:14:57;;;;;;;;;;;;;;;22.03;63.22;97320.28;617813;229;67042;-69
2022/05/11 11:17:26;;;;;;;;;;;;;;;22.05;64.79;97312.79;617804;229;64822;-69
2022/05/11 11:20:01;;;;;;;;;;;;;;;22.05;64.75;97304.76;617743;229;65187;-69
2022/05/11 11:22:28;;;;;;;;;;;;;;;22.06;64.15;97301.00;617838;229;64700;-69
2022/05/11 11:25:13;;;;;;;;;;;;;;;22.06;65.09;97298.32;617859;229;64938;-69
2022/05/11 11:27:58;;;;;;;;;;;;;;;22.07;65.21;97299.91;617766;229;63167;-70
2022/05/11 11:30:26;;;;;;;;;;;;;;;22.08;65.73;97298.86;617749;229;64818;-68
2022/05/11 11:33:16;;;;;;;;;;;;;;;22.08;65.56;97298.86;617795;229;66914;-68
2022/05/11 11:35:45;;;;;;;;;;;;;;;22.08;63.85;97304.21;617791;229;65338;-70
2022/05/11 11:38:14;;;;;;;;;;;;;;;22.10;66.40;97304.75;617117;229;67061;-67
2022/05/11 11:40:41;;;;;;;;;;;;;;;22.10;65.38;97305.55;617305;229;66939;-67
2022/05/11 11:43:39;;;;;;;;;;;;;;;22.10;64.83;97307.43;617828;229;65299;-67
2022/05/11 11:46:10;;;;;;;;;;;;;;;22.09;64.05;97306.60;617736;229;67193;-68
2022/05/11 11:48:38;;;;;;;;;;;;;;;22.09;64.11;97298.57;617807;229;66594;-68
2022/05/11 11:51:08;;;;;;;;;;;;;;;22.11;65.86;97301.79;617776;229;65283;-68
2022/05/11 11:53:43;;;;;;;;;;;;;;;22.12;64.63;97302.58;617796;229;67213;-69
2022/05/11 11:56:28;;;;;;;;;;;;;;;22.13;65.47;97296.17;617712;229;67236;-68
2022/05/11 11:59:03;;;;;;;;;;;;;;;22.14;65.12;97292.41;617782;229;63223;-69
2022/05/11 12:01:33;;;;;;;;;;;;;;;22.14;63.82;97285.19;617864;229;67188;-70
2022/05/11 12:04:05;;;;;;;;;;;;;;;22.14;65.11;97285.19;617423;229;66835;-70
2022/05/11 12:15:03;;;;;;;;;;;;;;;22.15;63.68;97269.92;617755;229;65311;-69
2022/05/11 12:17:35;;;;;;;;;;;;;;;22.17;65.40;97284.63;617694;229;66732;-70
2022/05/11 12:20:04;;;;;;;;;;;;;;;22.16;65.61;97272.34;617206;229;66933;-71
2022/05/11 12:22:32;;;;;;;;;;;;;;;22.17;65.63;97265.10;617637;229;65335;-71
2022/05/11 12:25:04;;;;;;;;;;;;;;;22.18;65.47;97264.08;617664;229;65041;-72
2022/05/11 12:27:33;;;;;;;;;;;;;;;22.18;65.13;97264.08;617683;229;66893;-70
2022/05/11 12:30:02;;;;;;;;;;;;;;;22.18;63.92;97264.08;617820;229;65103;-68
2022/05/11 12:32:37;;;;;;;;;;;;;;;22.20;64.93;97256.55;617564;229;67047;-71
2022/05/11 12:35:12;;;;;;;;;;;;;;;22.20;64.53;97258.44;617393;229;67063;-70
2022/05/11 12:37:40;;;;;;;;;;;;;;;22.21;64.93;97252.00;617427;229;65216;-72
2022/05/11 12:40:15;;;;;;;;;;;;;;;22.20;64.26;97253.88;617717;229;67043;-72
2022/05/11 12:42:44;;;;;;;;;;;;;;;22.22;66.88;97253.62;617451;229;66892;-72
2022/05/11 12:45:13;;;;;;;;;;;;;;;22.21;65.26;97242.11;617748;229;63087;-71
2022/05/11 12:47:42;;;;;;;;;;;;;;;22.22;66.94;97233.00;617778;229;67017;-71
2022/05/11 12:50:11;;;;;;;;;;;;;;;22.22;64.53;97235.67;617635;229;66898;-71
2022/05/11 12:52:38;;;;;;;;;;;;;;;22.22;64.57;97230.32;617679;229;65334;-71
2022/05/11 12:55:07;;;;;;;;;;;;;;;22.23;66.19;97223.88;617845;229;67288;-71
2022/05/11 12:57:38;;;;;;;;;;;;;;;22.24;65.62;97224.70;617139;229;46663;-71
2022/05/11 14:01:36;;;;;;;;;;;;;;;22.40;64.19;97207.50;615090;230;41941;-69
2022/05/11 14:04:05;;;;;;;;;;;;;;;22.43;65.36;97206.15;610860;230;66985;-70
2022/05/11 14:06:34;;;;;;;;;;;;;;;22.44;64.41;97207.74;610628;232;65346;-70
2022/05/11 14:09:01;;;;;;;;;;;;;;;22.46;65.20;97218.98;610685;232;67281;-70
2022/05/11 14:11:29;;;;;;;;;;;;;;;22.46;66.38;97213.63;610607;232;66909;-70
2022/05/11 14:13:56;;;;;;;;;;;;;;;22.48;64.71;97200.74;610582;232;65330;-71
2022/05/11 14:16:26;;;;;;;;;;;;;;;22.49;64.80;97205.05;610643;232;67093;-70
2022/05/11 14:18:54;;;;;;;;;;;;;;;22.49;64.67;97188.97;609682;232;64739;-71
2022/05/11 14:21:22;;;;;;;;;;;;;;;22.52;65.21;97207.17;609657;232;65332;-71
2022/05/11 14:23:49;;;;;;;;;;;;;;;22.52;64.80;97207.96;609688;232;67075;-71
2022/05/11 14:26:17;;;;;;;;;;;;;;;22.53;65.35;97206.08;606418;232;66923;-69
2022/05/11 14:28:45;;;;;;;;;;;;;;;22.54;66.24;97207.70;609507;232;64954;-70
2022/05/11 14:31:14;;;;;;;;;;;;;;;22.54;65.61;97205.81;609547;232;64852;-70
2022/05/11 14:33:42;;;;;;;;;;;;;;;22.56;65.64;97210.87;609396;232;66370;-71
2022/05/11 14:36:10;;;;;;;;;;;;;;;22.57;63.95;97207.14;609591;232;65538;-71
2022/05/11 14:38:38;;;;;;;;;;;;;;;22.58;64.33;97204.17;609679;232;66800;-71
2022/05/11 14:41:06;;;;;;;;;;;;;;;22.59;64.56;97203.11;609455;232;66874;-71
2022/05/11 14:43:33;;;;;;;;;;;;;;;22.60;66.38;97201.23;610039;231;65311;-68
2022/05/11 14:46:02;;;;;;;;;;;;;;;22.61;64.81;97205.50;611251;232;67093;-71
2022/05/11 14:48:31;;;;;;;;;;;;;;;22.62;64.60;97196.41;611150;232;66767;-72